createdAt,value
2023-02-24T00:00:31.784Z,6.60
2023-02-24T00:03:06.218Z,6.60
2023-02-24T00:05:35.262Z,6.70
2023-02-24T00:08:02.290Z,6.70
2023-02-24T00:10:29.363Z,6.70
2023-02-24T00:12:56.510Z,6.70
2023-02-24T00:15:23.529Z,6.70
2023-02-24T00:17:50.575Z,6.70
2023-02-24T00:20:18.905Z,6.60
2023-02-24T00:22:46.006Z,6.60
2023-02-24T00:25:14.495Z,6.60
2023-02-24T00:27:42.500Z,6.60
2023-02-24T00:30:11.445Z,6.50
2023-02-24T00:32:38.647Z,6.50
2023-02-24T00:35:06.109Z,6.50
2023-02-24T00:37:33.172Z,6.40
2023-02-24T00:40:01.225Z,6.40
2023-02-24T00:42:29.834Z,6.40
2023-02-24T00:44:56.894Z,6.30
2023-02-24T00:47:23.943Z,6.30
2023-02-24T00:49:51.044Z,6.20
2023-02-24T00:52:18.853Z,6.20
2023-02-24T00:54:46.479Z,6.20
2023-02-24T00:57:14.256Z,6.10
2023-02-24T00:59:42.346Z,6.10
2023-02-24T01:02:11.346Z,6.10
2023-02-24T01:04:38.640Z,6.10
2023-02-24T01:07:10.622Z,6.10
2023-02-24T01:09:38.590Z,6.00
2023-02-24T01:12:25.857Z,6.00
2023-02-24T01:14:53.032Z,6.00
2023-02-24T01:17:20.309Z,6.00
2023-02-24T01:19:50.106Z,6.00
2023-02-24T01:22:17.754Z,5.90
2023-02-24T01:24:45.949Z,6.00
2023-02-24T01:27:13.898Z,5.90
2023-02-24T01:29:41.511Z,5.90
2023-02-24T01:32:13.400Z,5.90
2023-02-24T01:34:42.447Z,5.90
2023-02-24T01:37:09.928Z,5.90
2023-02-24T01:39:37.193Z,5.90
2023-02-24T01:42:04.724Z,5.90
2023-02-24T01:44:32.769Z,5.80
2023-02-24T01:47:03.693Z,5.80
2023-02-24T01:49:34.635Z,5.70
2023-02-24T01:52:03.662Z,5.70
2023-02-24T01:54:32.770Z,5.60
2023-02-24T01:56:59.879Z,5.60
2023-02-24T01:59:27.845Z,5.50
2023-02-24T02:01:55.329Z,5.50
2023-02-24T02:04:27.799Z,5.40
2023-02-24T02:06:54.877Z,5.30
2023-02-24T02:09:21.909Z,5.40
2023-02-24T02:11:51.583Z,5.40
2023-02-24T02:14:19.587Z,5.40
2023-02-24T02:16:51.381Z,5.40
2023-02-24T02:19:24.562Z,5.40
2023-02-24T02:22:10.472Z,5.30
2023-02-24T02:24:57.621Z,5.30
2023-02-24T02:27:33.844Z,5.30
2023-02-24T02:30:00.858Z,5.30
2023-02-24T02:32:31.439Z,5.30
2023-02-24T02:34:58.714Z,5.30
2023-02-24T02:37:37.310Z,5.20
2023-02-24T02:40:19.972Z,5.20
2023-02-24T02:42:53.978Z,5.20
2023-02-24T02:45:23.116Z,5.20
2023-02-24T02:47:53.891Z,5.20
2023-02-24T02:50:41.093Z,5.10
2023-02-24T02:53:09.993Z,5.10
2023-02-24T02:55:41.390Z,5.00
2023-02-24T02:58:10.602Z,5.00
2023-02-24T03:00:42.009Z,5.00
2023-02-24T03:03:10.819Z,5.00
2023-02-24T03:05:46.410Z,5.00
2023-02-24T03:08:18.500Z,5.00
2023-02-24T03:10:45.643Z,5.00
2023-02-24T03:13:13.336Z,4.90
2023-02-24T03:15:42.398Z,4.90
2023-02-24T03:18:12.014Z,4.90
2023-02-24T03:20:41.750Z,4.90
2023-02-24T03:23:16.634Z,4.90
2023-02-24T03:25:46.822Z,4.90
2023-02-24T03:28:37.299Z,4.90
2023-02-24T03:31:11.085Z,4.80
2023-02-24T03:33:44.625Z,4.80
2023-02-24T03:36:14.906Z,4.80
2023-02-24T03:38:42.693Z,4.80
2023-02-24T03:41:12.462Z,4.70
2023-02-24T03:43:47.697Z,4.70
2023-02-24T03:46:17.110Z,4.70
2023-02-24T03:48:46.469Z,4.70
2023-02-24T03:51:15.942Z,4.70
2023-02-24T03:53:54.485Z,4.70
2023-02-24T03:56:22.453Z,4.60
2023-02-24T03:58:50.663Z,4.60
2023-02-24T04:01:31.030Z,4.60
2023-02-24T04:04:07.277Z,4.60
2023-02-24T04:06:44.469Z,4.60
2023-02-24T04:09:14.442Z,4.60
2023-02-24T04:12:13.662Z,4.60
2023-02-24T04:14:50.639Z,4.60
2023-02-24T04:17:20.488Z,4.60
2023-02-24T04:19:49.385Z,4.60
2023-02-24T04:22:19.188Z,4.60
2023-02-24T04:24:46.752Z,4.60
2023-02-24T04:27:13.834Z,4.60
2023-02-24T04:29:47.134Z,4.50
2023-02-24T04:32:17.069Z,4.60
2023-02-24T04:34:45.423Z,4.50
2023-02-24T04:37:13.622Z,4.50
2023-02-24T04:39:40.761Z,4.50
2023-02-24T04:42:20.592Z,4.60
2023-02-24T04:44:47.793Z,4.60
2023-02-24T04:47:15.597Z,4.60
2023-02-24T04:49:42.692Z,4.60
2023-02-24T04:52:09.754Z,4.60
2023-02-24T04:54:37.775Z,4.70
2023-02-24T04:57:07.758Z,4.70
2023-02-24T04:59:34.814Z,4.70
2023-02-24T05:02:01.941Z,4.70
2023-02-24T05:04:32.060Z,4.70
2023-02-24T05:06:59.181Z,4.70
2023-02-24T05:09:30.012Z,4.70
2023-02-24T05:11:57.096Z,4.70
2023-02-24T05:14:24.997Z,4.70
2023-02-24T05:16:52.111Z,4.70
2023-02-24T05:19:38.061Z,4.70
2023-02-24T05:22:06.993Z,4.70
2023-02-24T05:24:34.678Z,4.60
2023-02-24T05:27:03.593Z,4.60
2023-02-24T05:29:32.577Z,4.60
2023-02-24T05:31:59.931Z,4.50
2023-02-24T05:34:27.423Z,4.50
2023-02-24T05:36:54.469Z,4.60
2023-02-24T05:39:27.109Z,4.60
2023-02-24T05:41:55.569Z,4.60
2023-02-24T05:44:22.949Z,4.60
2023-02-24T05:46:56.538Z,4.50
2023-02-24T05:49:26.793Z,4.60
2023-02-24T05:51:57.674Z,4.50
2023-02-24T05:54:31.491Z,4.50
2023-02-24T05:57:00.127Z,4.50
2023-02-24T05:59:32.507Z,4.50
2023-02-24T06:02:07.054Z,4.50
2023-02-24T06:04:45.690Z,4.50
2023-02-24T06:07:13.947Z,4.50
2023-02-24T06:09:42.951Z,4.50
2023-02-24T06:12:10.286Z,4.50
2023-02-24T06:14:37.445Z,4.50
2023-02-24T06:17:04.489Z,4.50
2023-02-24T06:19:33.433Z,4.50
2023-02-24T06:22:01.665Z,4.40
2023-02-24T06:24:29.107Z,4.50
2023-02-24T06:27:05.872Z,4.40
2023-02-24T06:29:33.123Z,4.40
2023-02-24T06:32:00.326Z,4.40
2023-02-24T06:34:27.692Z,4.40
2023-02-24T06:36:54.813Z,4.40
2023-02-24T06:39:21.896Z,4.40
2023-02-24T06:41:49.488Z,4.40
2023-02-24T06:44:16.579Z,4.40
2023-02-24T06:46:43.694Z,4.40
2023-02-24T06:49:11.608Z,4.40
2023-02-24T06:51:39.141Z,4.40
2023-02-24T06:54:06.238Z,4.40
2023-02-24T06:56:38.382Z,4.40
2023-02-24T06:59:06.888Z,4.50
2023-02-24T07:01:34.664Z,4.60
2023-02-24T07:04:08.019Z,4.70
2023-02-24T07:06:36.576Z,4.80
2023-02-24T07:09:07.128Z,4.90
2023-02-24T07:11:34.651Z,4.90
2023-02-24T07:14:02.376Z,4.90
2023-02-24T07:16:30.532Z,4.90
2023-02-24T07:18:58.907Z,4.90
2023-02-24T07:21:26.269Z,4.90
2023-02-24T07:23:59.686Z,4.90
2023-02-24T07:26:27.621Z,4.90
2023-02-24T07:28:57.998Z,4.90
2023-02-24T07:31:26.086Z,4.90
2023-02-24T07:33:53.639Z,5.00
2023-02-24T07:36:23.358Z,5.00
2023-02-24T07:38:53.918Z,5.10
2023-02-24T07:41:22.692Z,5.20
2023-02-24T07:43:51.722Z,5.20
2023-02-24T07:46:19.993Z,5.20
2023-02-24T07:48:47.465Z,5.30
2023-02-24T07:51:14.924Z,5.30
2023-02-24T07:53:47.971Z,5.40
2023-02-24T07:56:17.742Z,5.50
2023-02-24T07:58:45.071Z,5.40
2023-02-24T08:01:22.756Z,5.50
2023-02-24T08:03:52.467Z,5.50
2023-02-24T08:06:37.605Z,5.50
2023-02-24T08:12:28.187Z,5.60
2023-02-24T08:15:00.146Z,5.70
2023-02-24T08:17:27.644Z,5.70
2023-02-24T08:20:12.934Z,5.80
2023-02-24T08:22:43.876Z,5.90
2023-02-24T08:25:18.041Z,6.00
2023-02-24T08:27:46.941Z,6.00
2023-02-24T08:30:25.352Z,6.10
2023-02-24T08:32:56.881Z,6.10
2023-02-24T08:35:25.926Z,6.30
2023-02-24T08:37:53.670Z,6.30
2023-02-24T08:40:33.456Z,6.40
2023-02-24T08:43:16.627Z,6.40
2023-02-24T08:45:44.481Z,6.40
2023-02-24T08:48:26.813Z,6.40
2023-02-24T08:50:54.443Z,6.50
2023-02-24T08:53:22.948Z,6.50
2023-02-24T08:55:52.973Z,6.50
2023-02-24T08:58:27.000Z,6.60
2023-02-24T09:00:56.946Z,6.60
2023-02-24T09:03:31.034Z,6.70
2023-02-24T09:06:04.520Z,6.80
2023-02-24T09:08:38.486Z,6.80
2023-02-24T09:11:08.188Z,6.90
2023-02-24T09:13:42.959Z,6.90
2023-02-24T09:16:16.285Z,7.00
2023-02-24T09:18:43.782Z,7.20
2023-02-24T09:21:30.199Z,7.20
2023-02-24T09:23:57.259Z,7.30
2023-02-24T09:26:24.383Z,7.40
2023-02-24T09:28:57.456Z,7.50
2023-02-24T09:31:40.595Z,7.60
2023-02-24T09:34:10.503Z,7.70
2023-02-24T09:36:45.080Z,7.90
2023-02-24T09:39:14.516Z,8.00
2023-02-24T09:41:56.702Z,8.20
2023-02-24T09:44:40.039Z,8.30
2023-02-24T09:47:31.280Z,8.40
2023-02-24T09:49:59.859Z,8.60
2023-02-24T09:52:39.642Z,8.80
2023-02-24T09:55:27.150Z,8.90
2023-02-24T09:58:18.145Z,9.00
2023-02-24T10:01:00.571Z,9.20
2023-02-24T10:03:42.768Z,9.40
2023-02-24T10:06:26.850Z,9.40
2023-02-24T10:08:53.898Z,9.50
2023-02-24T10:11:32.747Z,9.50
2023-02-24T10:14:03.840Z,9.50
2023-02-24T10:16:41.387Z,9.50
2023-02-24T10:19:17.539Z,9.50
2023-02-24T10:22:05.262Z,9.50
2023-02-24T10:24:37.525Z,9.50
2023-02-24T10:27:08.688Z,9.60
2023-02-24T10:29:55.777Z,9.70
2023-02-24T10:32:46.958Z,9.70
2023-02-24T10:35:16.409Z,9.80
2023-02-24T10:37:44.494Z,9.90
2023-02-24T10:40:12.966Z,10.10
2023-02-24T10:42:47.817Z,10.10
2023-02-24T10:45:24.633Z,10.20
2023-02-24T10:47:58.682Z,10.20
2023-02-24T10:50:27.022Z,10.20
2023-02-24T10:52:57.621Z,10.20
2023-02-24T10:55:48.952Z,10.30
2023-02-24T10:58:27.999Z,10.30
2023-02-24T11:01:12.438Z,10.30
2023-02-24T11:03:43.151Z,10.30
2023-02-24T11:06:38.286Z,10.30
2023-02-24T11:09:19.435Z,10.30
2023-02-24T11:12:05.255Z,10.40
2023-02-24T11:15:06.596Z,10.40
2023-02-24T11:17:34.635Z,10.50
2023-02-24T11:20:11.709Z,10.50
2023-02-24T11:22:40.093Z,10.50
2023-02-24T11:25:08.659Z,10.50
2023-02-24T11:27:35.948Z,10.60
2023-02-24T11:30:06.247Z,10.60
2023-02-24T11:32:33.567Z,10.70
2023-02-24T11:35:12.651Z,10.80
2023-02-24T11:37:43.708Z,10.80
2023-02-24T11:40:15.278Z,10.70
2023-02-24T11:42:46.034Z,10.70
2023-02-24T11:45:33.378Z,10.70
2023-02-24T11:48:03.865Z,10.70
2023-02-24T11:50:33.007Z,10.60
2023-02-24T11:53:01.927Z,10.60
2023-02-24T11:55:39.035Z,10.60
2023-02-24T11:58:08.735Z,10.50
2023-02-24T12:00:37.331Z,10.50
2023-02-24T12:03:37.076Z,10.40
2023-02-24T12:06:08.753Z,10.40
2023-02-24T12:08:36.066Z,10.30
2023-02-24T12:11:08.691Z,10.30
2023-02-24T12:13:35.710Z,10.30
2023-02-24T12:16:04.507Z,10.30
2023-02-24T12:18:40.197Z,10.30
2023-02-24T12:21:39.332Z,10.30
2023-02-24T12:24:09.061Z,10.30
2023-02-24T12:26:42.626Z,10.30
2023-02-24T12:29:16.157Z,10.30
2023-02-24T12:31:55.458Z,10.20
2023-02-24T12:34:33.595Z,10.20
2023-02-24T12:37:07.702Z,10.30
2023-02-24T12:39:43.954Z,10.20
2023-02-24T12:42:18.078Z,10.20
2023-02-24T12:44:49.619Z,10.20
2023-02-24T12:47:17.568Z,10.20
2023-02-24T12:49:57.338Z,10.20
2023-02-24T12:52:44.637Z,10.20
2023-02-24T12:55:12.734Z,10.10
2023-02-24T12:57:58.258Z,10.10
2023-02-24T13:00:28.306Z,10.10
2023-02-24T13:03:06.491Z,10.10
2023-02-24T13:05:34.521Z,10.10
2023-02-24T13:08:11.880Z,10.10
2023-02-24T13:10:46.857Z,10.10
2023-02-24T13:13:15.523Z,10.10
2023-02-24T13:15:55.486Z,10.10
2023-02-24T13:18:36.104Z,10.10
2023-02-24T13:21:04.368Z,10.10
2023-02-24T13:23:31.760Z,10.10
2023-02-24T13:25:58.858Z,10.10
2023-02-24T13:28:33.194Z,10.10
2023-02-24T13:31:02.260Z,10.10
2023-02-24T13:33:30.906Z,10.10
2023-02-24T13:36:12.166Z,10.10
2023-02-24T13:38:40.509Z,10.10
2023-02-24T13:41:07.734Z,10.10
2023-02-24T13:43:34.810Z,10.20
2023-02-24T13:46:02.456Z,10.20
2023-02-24T13:48:29.664Z,10.20
2023-02-24T13:51:16.634Z,10.20
2023-02-24T13:53:50.280Z,10.20
2023-02-24T13:56:37.470Z,10.20
2023-02-24T13:59:05.155Z,10.20
2023-02-24T14:01:33.006Z,10.20
2023-02-24T14:04:06.704Z,10.10
2023-02-24T14:06:33.832Z,10.10
2023-02-24T14:09:01.045Z,10.10
2023-02-24T14:11:29.301Z,10.10
2023-02-24T14:13:56.580Z,10.10
2023-02-24T14:16:24.940Z,10.00
2023-02-24T14:18:53.162Z,10.00
2023-02-24T14:21:21.128Z,10.00
2023-02-24T14:23:54.718Z,10.00
2023-02-24T14:26:22.174Z,10.00
2023-02-24T14:28:54.593Z,10.00
2023-02-24T14:31:22.010Z,10.00
2023-02-24T14:33:52.713Z,10.00
2023-02-24T14:36:24.259Z,10.00
2023-02-24T14:39:07.925Z,10.00
2023-02-24T14:41:35.299Z,9.90
2023-02-24T14:44:09.965Z,9.90
2023-02-24T14:46:45.890Z,9.90
2023-02-24T14:49:16.959Z,9.80
2023-02-24T14:51:44.342Z,9.70
2023-02-24T14:54:11.845Z,9.70
2023-02-24T14:56:39.020Z,9.70
2023-02-24T14:59:07.852Z,9.70
2023-02-24T15:01:39.898Z,9.60
2023-02-24T15:04:26.815Z,9.60
2023-02-24T15:06:53.895Z,9.60
2023-02-24T15:09:25.345Z,9.50
2023-02-24T15:11:53.249Z,9.50
2023-02-24T15:14:27.805Z,9.40
2023-02-24T15:16:55.958Z,9.40
2023-02-24T15:19:27.286Z,9.40
2023-02-24T15:21:54.463Z,9.30
2023-02-24T15:24:25.526Z,9.30
2023-02-24T15:26:53.384Z,9.20
2023-02-24T15:29:26.742Z,9.20
2023-02-24T15:31:57.178Z,9.10
2023-02-24T15:34:30.956Z,9.10
2023-02-24T15:37:01.038Z,9.10
2023-02-24T15:39:28.633Z,9.10
2023-02-24T15:42:06.458Z,9.00
2023-02-24T15:44:33.967Z,9.00
2023-02-24T15:47:28.719Z,9.00
2023-02-24T15:49:55.810Z,9.00
2023-02-24T15:52:26.737Z,9.00
2023-02-24T15:54:54.457Z,9.00
2023-02-24T15:57:21.741Z,8.90
2023-02-24T16:00:04.748Z,8.90
2023-02-24T16:02:39.172Z,8.90
2023-02-24T16:05:06.550Z,8.90
2023-02-24T16:07:34.379Z,8.90
2023-02-24T16:10:01.548Z,8.90
2023-02-24T16:12:39.406Z,8.90
2023-02-24T16:15:06.795Z,8.90
2023-02-24T16:17:41.490Z,8.90
2023-02-24T16:20:12.282Z,8.80
2023-02-24T16:22:39.430Z,8.80
2023-02-24T16:25:06.764Z,8.80
2023-02-24T16:27:34.100Z,8.70
2023-02-24T16:30:01.265Z,8.80
2023-02-24T16:32:28.685Z,8.70
2023-02-24T16:34:56.440Z,8.70
2023-02-24T16:37:27.519Z,8.70
2023-02-24T16:39:54.805Z,8.70
2023-02-24T16:42:22.178Z,8.70
2023-02-24T16:44:50.518Z,8.60
2023-02-24T16:47:18.784Z,8.60
2023-02-24T16:49:46.038Z,8.60
2023-02-24T16:52:13.208Z,8.60
2023-02-24T16:54:40.343Z,8.60
2023-02-24T16:57:07.432Z,8.50
2023-02-24T16:59:34.529Z,8.50
2023-02-24T17:02:02.336Z,8.50
2023-02-24T17:04:32.030Z,8.40
2023-02-24T17:06:59.229Z,8.40
2023-02-24T17:09:29.499Z,8.40
2023-02-24T17:11:56.760Z,8.30
2023-02-24T17:14:24.660Z,8.30
2023-02-24T17:16:51.931Z,8.30
2023-02-24T17:19:19.584Z,8.30
2023-02-24T17:21:46.769Z,8.30
2023-02-24T17:24:17.640Z,8.30
2023-02-24T17:26:44.730Z,8.30
2023-02-24T17:29:12.155Z,8.20
2023-02-24T17:31:39.766Z,8.20
2023-02-24T17:34:07.089Z,8.20
2023-02-24T17:36:34.172Z,8.20
2023-02-24T17:39:01.349Z,8.20
2023-02-24T17:41:28.430Z,8.10
2023-02-24T17:43:55.548Z,8.20
2023-02-24T17:46:23.130Z,8.10
2023-02-24T17:48:51.309Z,8.10
2023-02-24T17:51:18.699Z,8.10
2023-02-24T17:53:45.955Z,8.00
2023-02-24T17:56:14.713Z,8.00
2023-02-24T17:58:41.962Z,8.00
2023-02-24T18:01:08.995Z,8.00
2023-02-24T18:03:36.123Z,8.00
2023-02-24T18:06:05.267Z,7.90
2023-02-24T18:08:32.547Z,7.90
2023-02-24T18:11:00.517Z,7.90
2023-02-24T18:13:27.986Z,7.90
2023-02-24T18:15:55.327Z,7.90
2023-02-24T18:18:22.863Z,7.90
2023-02-24T18:20:50.056Z,7.80
2023-02-24T18:23:17.270Z,7.80
2023-02-24T18:25:44.362Z,7.80
2023-02-24T18:28:11.421Z,7.80
2023-02-24T18:30:38.930Z,7.80
2023-02-24T18:33:06.273Z,7.80
2023-02-24T18:35:33.495Z,7.80
2023-02-24T18:38:00.553Z,7.80
2023-02-24T18:40:28.144Z,7.80
2023-02-24T18:42:55.329Z,7.80
2023-02-24T18:45:22.569Z,7.80
2023-02-24T18:47:52.878Z,7.70
2023-02-24T18:50:25.043Z,7.70
2023-02-24T18:52:52.176Z,7.70
2023-02-24T18:55:19.780Z,7.70
2023-02-24T18:57:47.437Z,7.70
2023-02-24T19:00:15.490Z,7.70
2023-02-24T19:02:42.711Z,7.70
2023-02-24T19:05:11.014Z,7.80
2023-02-24T19:07:38.138Z,7.80
2023-02-24T19:10:05.482Z,7.80
2023-02-24T19:12:32.636Z,7.80
2023-02-24T19:14:59.732Z,7.80
2023-02-24T19:17:26.793Z,7.80
2023-02-24T19:19:54.399Z,7.70
2023-02-24T19:22:21.433Z,7.80
2023-02-24T19:24:48.462Z,7.80
2023-02-24T19:27:15.562Z,7.80
2023-02-24T19:29:42.676Z,7.80
2023-02-24T19:32:09.802Z,7.80
2023-02-24T19:34:40.705Z,7.80
2023-02-24T19:37:07.762Z,7.80
2023-02-24T19:39:34.852Z,7.80
2023-02-24T19:42:02.181Z,7.80
2023-02-24T19:44:29.304Z,7.80
2023-02-24T19:46:56.529Z,7.80
2023-02-24T19:49:23.859Z,7.80
2023-02-24T19:51:54.996Z,7.90
2023-02-24T19:54:22.759Z,7.90
2023-02-24T19:56:49.936Z,7.90
2023-02-24T19:59:17.204Z,7.90
2023-02-24T20:01:44.334Z,7.90
2023-02-24T20:04:12.784Z,7.90
2023-02-24T20:06:40.695Z,7.90
2023-02-24T20:09:08.301Z,7.80
2023-02-24T20:11:35.988Z,7.90
2023-02-24T20:14:03.158Z,7.90
2023-02-24T20:16:34.450Z,7.90
2023-02-24T20:19:01.651Z,7.90
2023-02-24T20:21:28.736Z,7.80
2023-02-24T20:23:58.310Z,7.80
2023-02-24T20:26:25.467Z,7.80
2023-02-24T20:28:52.586Z,7.80
2023-02-24T20:31:19.942Z,7.80
2023-02-24T20:33:47.231Z,7.80
2023-02-24T20:36:15.288Z,7.80
2023-02-24T20:38:42.368Z,7.70
2023-02-24T20:41:09.629Z,7.80
2023-02-24T20:43:36.727Z,7.80
2023-02-24T20:46:24.057Z,7.70
2023-02-24T20:48:52.018Z,7.70
2023-02-24T20:51:19.316Z,7.70
2023-02-24T20:53:56.833Z,7.60
2023-02-24T20:56:25.146Z,7.60
2023-02-24T20:58:53.002Z,7.60
2023-02-24T21:01:20.566Z,7.60
2023-02-24T21:03:49.394Z,7.50
2023-02-24T21:06:16.504Z,7.50
2023-02-24T21:08:44.249Z,7.50
2023-02-24T21:11:11.608Z,7.40
2023-02-24T21:13:42.650Z,7.30
2023-02-24T21:16:10.034Z,7.30
2023-02-24T21:18:38.257Z,7.20
2023-02-24T21:21:05.908Z,7.10
2023-02-24T21:23:33.031Z,6.90
2023-02-24T21:26:00.137Z,6.80
2023-02-24T21:28:27.207Z,6.70
2023-02-24T21:30:54.366Z,6.70
2023-02-24T21:33:21.529Z,6.60
2023-02-24T21:36:06.628Z,6.60
2023-02-24T21:38:34.144Z,6.50
2023-02-24T21:41:02.386Z,6.50
2023-02-24T21:43:29.546Z,6.40
2023-02-24T21:45:56.822Z,6.40
2023-02-24T21:48:23.960Z,6.30
2023-02-24T21:50:58.167Z,6.30
2023-02-24T21:53:27.478Z,6.30
2023-02-24T21:56:04.047Z,6.20
2023-02-24T21:58:31.687Z,6.20
2023-02-24T22:00:58.929Z,6.20
2023-02-24T22:03:26.094Z,6.20
2023-02-24T22:05:54.317Z,6.20
2023-02-24T22:08:21.414Z,6.10
2023-02-24T22:10:56.332Z,6.10
2023-02-24T22:13:23.338Z,6.00
2023-02-24T22:15:50.529Z,5.90
2023-02-24T22:18:19.143Z,5.80
2023-02-24T22:20:47.913Z,5.70
2023-02-24T22:23:15.025Z,5.70
2023-02-24T22:25:42.181Z,5.60
2023-02-24T22:28:09.357Z,5.60
2023-02-24T22:30:36.505Z,5.50
2023-02-24T22:33:03.619Z,5.40
2023-02-24T22:35:33.076Z,5.30
2023-02-24T22:38:00.150Z,5.30
2023-02-24T22:40:27.154Z,5.20
2023-02-24T22:42:54.263Z,5.20
2023-02-24T22:45:21.344Z,5.10
2023-02-24T22:47:48.424Z,5.00
2023-02-24T22:50:15.637Z,5.10
2023-02-24T22:52:42.756Z,5.00
2023-02-24T22:55:10.207Z,5.00
2023-02-24T22:57:37.279Z,5.00
2023-02-24T23:00:09.506Z,5.00
2023-02-24T23:02:36.887Z,5.00
2023-02-24T23:05:04.095Z,5.00
2023-02-24T23:07:31.202Z,4.90
2023-02-24T23:09:59.478Z,4.90
2023-02-24T23:12:27.143Z,4.80
2023-02-24T23:14:54.219Z,4.80
2023-02-24T23:17:21.880Z,4.80
2023-02-24T23:19:48.910Z,4.80
2023-02-24T23:22:15.972Z,4.70
2023-02-24T23:24:43.056Z,4.70
2023-02-24T23:27:10.141Z,4.70
2023-02-24T23:29:37.236Z,4.70
2023-02-24T23:32:04.401Z,4.60
2023-02-24T23:34:31.684Z,4.50
2023-02-24T23:36:58.731Z,4.40
2023-02-24T23:39:25.903Z,4.30
2023-02-24T23:41:56.850Z,4.10
2023-02-24T23:44:24.513Z,4.10
2023-02-24T23:46:52.574Z,4.00
2023-02-24T23:49:19.601Z,3.90
2023-02-24T23:51:48.713Z,3.90
2023-02-24T23:54:19.122Z,3.80
2023-02-24T23:56:46.428Z,3.80
2023-02-24T23:59:13.657Z,3.70
